LGHI/JKH METAR and TAF weather

Enter ICAO airport designator
Station Type Date Time Source
LGHI METAR 2019/04/18 18:50 UTC NOAA

LGHI 181850Z 02013KT 9999 FEW020 15/04 Q1018


Station Type Date Time Source
LGHI Decoded METAR 2019/04/18 18:50 UTC NOAA

Chios Airport , Greece (LGHI) 38-20N 026-08E 4M
Apr 18, 2019 - 02:50 PM EDT / 2019.04.18 1850 UTC
Wind: from the NNE (020 degrees) at 15 MPH (13 KT):0
Visibility: greater than 7 mile(s):0
Sky conditions: mostly clear
Temperature: 59 F (15 C)
Dew Point: 39 F (4 C)
Relative Humidity: 47%
Pressure (altimeter): 30.06 in. Hg (1018 hPa)
ob: LGHI 181850Z 02013KT 9999 FEW020 15/04 Q1018
cycle: 19

Station Type Date Time Source
LGHI TAF 2012/09/21 03:06 UTC NOAA

TAF TAF LGHI 210200Z 2103/2115 VRB05KT 9999 SCT020 PROB30
TEMPO 2103/2106 7000 RA SCT018 BKN030
BECMG 2103/2105 30018KT

Example: see airport list